createdAt,value
2018-06-08T00:01:19.078Z,14.53
2018-06-08T00:07:14.173Z,13.5
2018-06-08T00:13:09.078Z,13.04
2018-06-08T00:19:04.058Z,15.23
2018-06-08T00:24:59.101Z,13.1
2018-06-08T00:30:54.088Z,10.89
2018-06-08T00:36:49.157Z,9.52
2018-06-08T00:42:44.093Z,12.71
2018-06-08T00:54:34.108Z,11.61
2018-06-08T01:00:33.213Z,9.42
2018-06-08T01:06:24.096Z,8.34
2018-06-08T01:12:23.158Z,10.12
2018-06-08T01:30:05.063Z,11.73
2018-06-08T01:35:59.111Z,9.8
2018-06-08T01:41:54.125Z,14.03
2018-06-08T01:47:49.167Z,19.77
2018-06-08T01:53:44.133Z,15.41
2018-06-08T01:59:39.193Z,14.65
2018-06-08T02:05:39.368Z,12.48
2018-06-08T02:11:29.311Z,13.69
2018-06-08T02:17:24.164Z,11.23
2018-06-08T02:23:19.152Z,13.61
2018-06-08T02:29:14.131Z,11.6
2018-06-08T02:35:09.186Z,13.01
2018-06-08T02:41:04.153Z,9.6
2018-06-08T02:46:59.204Z,9.97
2018-06-08T02:52:54.199Z,11.96
2018-06-08T02:58:49.260Z,12.37
2018-06-08T03:04:44.183Z,9.06
2018-06-08T03:10:39.161Z,9.63
2018-06-08T03:16:34.185Z,6.1
2018-06-08T03:22:29.163Z,15.27
2018-06-08T03:28:24.221Z,9.7
2018-06-08T03:34:19.197Z,5.37
2018-06-08T03:40:14.191Z,7.45
2018-06-08T03:46:09.206Z,8.55
2018-06-08T03:52:04.196Z,7.68
2018-06-08T03:57:59.227Z,5.88
2018-06-08T04:03:54.292Z,4.51
2018-06-08T04:09:49.246Z,8.26
2018-06-08T04:15:44.288Z,6.63
2018-06-08T04:21:39.265Z,5.21
2018-06-08T04:27:34.222Z,8.18
2018-06-08T04:33:29.267Z,8.54
2018-06-08T04:39:24.268Z,6.93
2018-06-08T04:45:19.236Z,6.33
2018-06-08T04:51:14.289Z,9.29
2018-06-08T04:57:09.272Z,10.95
2018-06-08T05:03:04.296Z,11.17
2018-06-08T05:08:59.245Z,18.6
2018-06-08T05:14:54.329Z,15.14
2018-06-08T05:20:49.880Z,14.71
2018-06-08T05:26:44.253Z,13.41
2018-06-08T05:32:39.332Z,11.97
2018-06-08T05:38:34.326Z,14.85
2018-06-08T05:44:29.285Z,10.48
2018-06-08T05:50:24.329Z,10.8
2018-06-08T05:56:19.292Z,14.88
2018-06-08T06:02:14.276Z,14.19
2018-06-08T06:08:09.327Z,14.63
2018-06-08T06:14:04.291Z,13.41
2018-06-08T06:19:59.329Z,11.37
2018-06-08T06:25:54.330Z,15.83
2018-06-08T06:31:49.393Z,14.08
2018-06-08T06:37:44.306Z,12.35
2018-06-08T06:43:39.365Z,11.68
2018-06-08T06:49:34.343Z,14.37
2018-06-08T06:55:29.312Z,9.91
2018-06-08T07:01:24.344Z,8.77
2018-06-08T07:07:19.332Z,7.29
2018-06-08T07:13:14.388Z,5.91
2018-06-08T07:19:09.321Z,6.56
2018-06-08T07:25:04.366Z,6.4
2018-06-08T07:30:59.361Z,10.77
2018-06-08T07:36:54.346Z,5.37
2018-06-08T07:42:49.362Z,6.37
2018-06-08T07:48:44.386Z,8.9
2018-06-08T07:54:39.378Z,6.25
2018-06-08T08:00:35.378Z,7.42
2018-06-08T08:06:29.362Z,5.69
2018-06-08T08:12:24.390Z,5.8
2018-06-08T08:18:19.401Z,4.88
2018-06-08T08:24:14.555Z,4.33
2018-06-08T08:30:10.265Z,9.4
2018-06-08T08:36:04.395Z,6.67
2018-06-08T08:41:59.409Z,6.04
2018-06-08T08:47:55.700Z,3.89
2018-06-08T08:53:49.476Z,4.87
2018-06-08T08:59:44.430Z,7.76
2018-06-08T09:05:39.467Z,7.08
2018-06-08T09:11:34.500Z,6.79
2018-06-08T09:17:29.417Z,5.31
2018-06-08T09:23:24.478Z,4.33
2018-06-08T09:29:19.491Z,6.13
2018-06-08T09:35:14.443Z,12.93
2018-06-08T09:41:09.445Z,6.76
2018-06-08T09:47:04.444Z,3.97
2018-06-08T09:52:59.454Z,3.17
2018-06-08T09:58:54.497Z,4.44
2018-06-08T10:04:50.355Z,4.39
2018-06-08T10:10:46.175Z,3.75
2018-06-08T10:16:40.235Z,3.54
2018-06-08T10:22:34.496Z,3.12
2018-06-08T10:28:30.057Z,3.17
2018-06-08T10:34:25.005Z,3.84
2018-06-08T10:40:21.140Z,1.61
2018-06-08T10:46:14.554Z,1.86
2018-06-08T10:52:09.491Z,2.24
2018-06-08T10:58:04.517Z,6.73
2018-06-08T11:04:01.175Z,1.25
2018-06-08T11:09:54.510Z,1.55
2018-06-08T11:15:49.528Z,2.8
2018-06-08T11:21:44.585Z,2.77
2018-06-08T11:27:39.521Z,1.89
2018-06-08T11:33:35.240Z,1.38
2018-06-08T11:39:29.587Z,3.09
2018-06-08T11:45:24.654Z,1.4
2018-06-08T11:51:19.580Z,2.96
2018-06-08T11:57:14.977Z,4.12
2018-06-08T12:03:09.569Z,3.25
2018-06-08T12:09:04.615Z,3.3
2018-06-08T12:14:59.582Z,3.17
2018-06-08T12:20:54.569Z,2.23
2018-06-08T12:26:49.979Z,6.8
2018-06-08T12:32:44.605Z,2.62
2018-06-08T12:38:39.873Z,2.52
2018-06-08T12:44:34.643Z,2.3
2018-06-08T12:50:29.610Z,1.22
2018-06-08T12:56:24.930Z,3.1
2018-06-08T13:02:20.217Z,1.83
2018-06-08T13:08:15.654Z,3.1
2018-06-08T13:14:09.591Z,4.75
2018-06-08T13:20:06.021Z,3.67
2018-06-08T13:25:59.624Z,2.77
2018-06-08T13:31:54.631Z,1.81
2018-06-08T13:37:50.067Z,3
2018-06-08T13:43:44.689Z,1.85
2018-06-08T13:49:40.032Z,2.47
2018-06-08T13:55:34.682Z,2.86
2018-06-08T14:01:29.666Z,3.66
2018-06-08T14:07:24.721Z,2.43
2018-06-08T14:13:19.720Z,2.95
2018-06-08T14:19:15.594Z,2.04
2018-06-08T14:25:09.684Z,5.8
2018-06-08T14:31:04.883Z,3.02
2018-06-08T14:36:59.694Z,2.41
2018-06-08T14:42:54.730Z,7.37
2018-06-08T14:48:49.677Z,7.07
2018-06-08T14:54:44.690Z,8.02
2018-06-08T15:00:39.781Z,5.09
2018-06-08T15:06:34.720Z,5.93
2018-06-08T15:12:30.491Z,7.98
2018-06-08T15:18:25.618Z,7.16
2018-06-08T15:24:19.711Z,5.87
2018-06-08T15:30:16.061Z,5.57
2018-06-08T15:36:10.138Z,5.15
2018-06-08T15:42:04.705Z,5.14
2018-06-08T15:47:59.756Z,7.35
2018-06-08T15:53:54.744Z,5.38
2018-06-08T15:59:49.752Z,5.83
2018-06-08T16:05:44.821Z,7.2
2018-06-08T16:11:39.736Z,4.34
2018-06-08T16:17:34.765Z,6.81
2018-06-08T16:23:29.823Z,8.22
2018-06-08T16:29:24.814Z,8.53
2018-06-08T16:35:19.760Z,4.87
2018-06-08T16:41:14.784Z,6.83
2018-06-08T16:47:10.450Z,5.28
2018-06-08T16:53:04.766Z,7.53
2018-06-08T16:58:59.764Z,9.02
2018-06-08T17:04:54.837Z,4.3
2018-06-08T17:10:49.772Z,9.99
2018-06-08T17:16:44.819Z,7.19
2018-06-08T17:22:39.871Z,7.78
2018-06-08T17:34:29.807Z,5.63
2018-06-08T17:40:25.377Z,5.89
2018-06-08T17:46:20.250Z,12.25
2018-06-08T17:52:15.296Z,7.21
2018-06-08T17:58:09.835Z,6.9
2018-06-08T18:04:07.239Z,7.18
2018-06-08T18:09:59.883Z,7.48
2018-06-08T18:15:56.379Z,8.21
2018-06-08T18:21:51.699Z,7.97
2018-06-08T18:27:44.821Z,7.01
2018-06-08T18:33:39.932Z,5.05
2018-06-08T18:39:34.908Z,4.61
2018-06-08T18:45:30.507Z,7.79
2018-06-08T18:51:24.880Z,6.96
2018-06-08T18:57:20.432Z,25.42
2018-06-08T19:03:14.886Z,12.91
2018-06-08T19:09:09.963Z,8.3
2018-06-08T19:15:06.290Z,8.14
2018-06-08T19:20:59.883Z,11.08
2018-06-08T19:26:54.911Z,9.92
2018-06-08T19:32:50.720Z,9.99
2018-06-08T19:38:45.021Z,9.36
2018-06-08T19:44:40.440Z,8.23
2018-06-08T19:50:34.931Z,8.5
2018-06-08T19:56:29.958Z,9.7
2018-06-08T20:02:25.848Z,10.6
2018-06-08T20:08:20.730Z,9.44
2018-06-08T20:14:14.951Z,10.01
2018-06-08T20:20:10.546Z,10.06
2018-06-08T20:26:06.715Z,7.15
2018-06-08T20:31:59.972Z,6.88
2018-06-08T20:43:49.953Z,8.45
2018-06-08T20:49:45.012Z,9.86
2018-06-08T20:55:39.971Z,10.18
2018-06-08T21:01:34.964Z,11.74
2018-06-08T21:07:29.975Z,8.58
2018-06-08T21:13:24.987Z,11.48
2018-06-08T21:19:19.976Z,12.48
2018-06-08T21:25:14.972Z,11.2
2018-06-08T21:31:10.172Z,10.25
2018-06-08T21:37:05.001Z,9.59
2018-06-08T21:43:00.010Z,8.35
2018-06-08T21:48:55.044Z,8.78
2018-06-08T21:54:50.047Z,12.56
2018-06-08T22:00:44.987Z,9.63
2018-06-08T22:06:40.008Z,10.06
2018-06-08T22:12:34.975Z,11.4
2018-06-08T22:18:30.007Z,10.32
2018-06-08T22:24:24.998Z,10.1
2018-06-08T22:30:19.993Z,10.87
2018-06-08T22:36:15.167Z,8.87
2018-06-08T22:42:10.008Z,11.69
2018-06-08T22:48:05.096Z,10.75
2018-06-08T22:54:00.038Z,16.39
2018-06-08T22:59:55.058Z,11.58
2018-06-08T23:05:50.008Z,12.11
2018-06-08T23:11:45.047Z,11.75
2018-06-08T23:17:40.332Z,11.55
2018-06-08T23:23:35.030Z,14.33
2018-06-08T23:29:30.047Z,16.02
2018-06-08T23:35:25.139Z,10.99
2018-06-08T23:41:20.029Z,10.15
2018-06-08T23:47:15.121Z,9.89
2018-06-08T23:53:10.058Z,12.85
2018-06-08T23:59:05.076Z,13.12
